Los Angeles, CA

05:10 AM PDT on Οκτώβριος 22, 2014 (GMT -0700)
Los Angeles Downtown | Change Station
CLOSE
Current Station
Airport
Location: Los Angeles Downtown,
Elevation: 184 ft
Nearby Weather Stations

Elev 184 ft 34.02 °N, 118.29 °W | Updated 23 minutes ago

Αίθριος
Αίθριος
62 ° F
Feels Like 62 ° F
N
0
Ανεμος Μεταβλητός Ανεμος from Βόρειος

Σήμερα
High -- | Low -- ° F
--% Chance of Precip.
Yesterday
High -- | Low -- ° F
Precip. -- in
7:03 AM 6:10 PM
Μηνίσκος, 2% visible
Ατμοσφαιρική Πίεση 29.88 in
Ορατότητα 10.0 Μίλια
Σύννεφα Αίθριος
Σημείο Δρόσου 58 ° F
Υγρασία 86%
Rainfall 0.00 in
Snow Depth Not available.
Υπεριώδης ακτινοβολία (UV) 0 out of 12
Pollen 4.50 out of 12
Όζον Καλή
PM2.5 Μέτρια
Flu Activity Sporadic
METAR KCQT 221147Z AUTO 00000KT 10SM CLR 17/14 A2988 RMK AO2 SLP116 T01670144 10194 20167 50002

More Conditions Fewer Conditions

Ατμοσφαιρική Πίεση 29.88 in
Ορατότητα 10.0 Μίλια
Σύννεφα Αίθριος
Σημείο Δρόσου 58 ° F
Υγρασία 86%
Rainfall 0.00 in
Snow Depth Not available.
Υπεριώδης ακτινοβολία (UV) 0 out of 12
Pollen 4.50 out of 12
Όζον Καλή
PM2.5 Μέτρια
Flu Activity Sporadic
METAR KCQT 221147Z AUTO 00000KT 10SM CLR 17/14 A2988 RMK AO2 SLP116 T01670144 10194 20167 50002

More Conditions Fewer Conditions

10-Day Weather Forecast

Almanac

Αστρονομία

Oct. 22, 2014 Rise Set
Actual Time 7:03 AM PDT 6:10 PM PDT
Civil Twilight 6:38 AM PDT 6:35 PM PDT
Nautical Twilight 6:09 AM PDT 7:05 PM PDT
Astronomical Twilight 5:40 AM PDT 7:34 PM PDT
Moon 5:53 AM PDT 5:37 PM PDT
Length Of Visible Light 11h 57m
Διάρκεια ημέρας
11h 06m
Tomorrow will be 1m 58s shorter.
Μηνίσκος, 2% of the Moon is Illuminated
Σήμερα
Μηνίσκος
Oct 23
New
Oct 30
Πρώτο τέταρτο
Nov 6
Πανσέληνος
Nov 14
Τελευταίο τέταρτο

Today's Extremes

State Highs State Lows

Community

WunderPhotos

Upload Photos

1,763,906 photos uploaded!

Nearby

Air Quality

  Air Quality AQ Index Pollutant
Yesterday Καλή
PM10
Yesterday Καλή
OZONE
Current Μέτρια
PM2.5
Current Καλή
OZONE
Τετάρτη Καλή
PM10
Τετάρτη Καλή
OZONE
Τετάρτη Καλή
CO
Τετάρτη Καλή
NO2

Snow Depth

Station Depth Elevation
Virginia Lakes Ridge 0 in 9200 ft
Leavitt Lake 1 in 9400 ft
Sonora Pass 0 in 8800 ft
Leavitt Meadows 1 in 7200 ft
Summit Meadow 1 in 9122 ft

Earthquake Activity

City Distance Mag. Time & Date
No recent earthquake activity has been reported nearby.
Minimum magnitude displayed is 2.5.

Coastal Water Temperatures

Τοποθεσία Θερμοκρασία
Santa Monica Pier 69.1 ° F
Los Angeles, CA 69.1 ° F
La Jolla, CA 71.1 ° F

Nearby Weather Stations